sensor_id;sensor_type;location;lat;lon;timestamp;pressure;altitude;pressure_sealevel;temperature;humidity
36664;BME280;53333;51.976;20.144;2022-09-16T00:01:51;98849.56;;;13.86;66.65
36664;BME280;53333;51.976;20.144;2022-09-16T00:04:24;98845.44;;;13.81;66.61
36664;BME280;53333;51.976;20.144;2022-09-16T00:06:58;98843.00;;;13.78;66.73
36664;BME280;53333;51.976;20.144;2022-09-16T00:09:33;98842.28;;;13.76;66.65
36664;BME280;53333;51.976;20.144;2022-09-16T00:12:07;98849.75;;;13.73;66.80
36664;BME280;53333;51.976;20.144;2022-09-16T00:14:40;98857.75;;;13.84;66.19
36664;BME280;53333;51.976;20.144;2022-09-16T00:17:13;98861.44;;;13.72;66.42
36664;BME280;53333;51.976;20.144;2022-09-16T00:19:47;98858.16;;;13.68;66.47
36664;BME280;53333;51.976;20.144;2022-09-16T00:22:21;98869.03;;;13.67;66.52
36664;BME280;53333;51.976;20.144;2022-09-16T00:24:56;98867.31;;;13.66;66.73
36664;BME280;53333;51.976;20.144;2022-09-16T00:27:30;98868.19;;;13.66;66.56
36664;BME280;53333;51.976;20.144;2022-09-16T00:30:04;98858.00;;;13.81;65.93
36664;BME280;53333;51.976;20.144;2022-09-16T00:32:37;98866.56;;;13.75;66.10
36664;BME280;53333;51.976;20.144;2022-09-16T00:35:11;98865.47;;;13.77;66.33
36664;BME280;53333;51.976;20.144;2022-09-16T00:37:44;98866.91;;;13.81;66.37
36664;BME280;53333;51.976;20.144;2022-09-16T00:40:20;98866.06;;;13.81;66.61
36664;BME280;53333;51.976;20.144;2022-09-16T00:42:54;98865.94;;;13.83;66.53
36664;BME280;53333;51.976;20.144;2022-09-16T00:45:27;98868.75;;;13.81;66.40
36664;BME280;53333;51.976;20.144;2022-09-16T00:48:05;98857.28;;;13.79;66.74
36664;BME280;53333;51.976;20.144;2022-09-16T00:50:43;98861.06;;;13.76;66.87
36664;BME280;53333;51.976;20.144;2022-09-16T00:53:21;98851.59;;;13.72;66.99
36664;BME280;53333;51.976;20.144;2022-09-16T00:55:58;98853.38;;;13.72;67.05
36664;BME280;53333;51.976;20.144;2022-09-16T00:58:40;98867.81;;;13.71;67.15
36664;BME280;53333;51.976;20.144;2022-09-16T01:01:15;98867.31;;;13.66;67.30
36664;BME280;53333;51.976;20.144;2022-09-16T01:03:52;98872.06;;;13.62;67.52
36664;BME280;53333;51.976;20.144;2022-09-16T01:06:27;98877.69;;;13.59;67.46
36664;BME280;53333;51.976;20.144;2022-09-16T01:09:01;98872.56;;;13.56;67.77
36664;BME280;53333;51.976;20.144;2022-09-16T01:11:36;98876.50;;;13.52;67.86
36664;BME280;53333;51.976;20.144;2022-09-16T01:14:10;98873.69;;;13.53;67.99
36664;BME280;53333;51.976;20.144;2022-09-16T01:17:06;98877.34;;;13.52;68.02
36664;BME280;53333;51.976;20.144;2022-09-16T01:19:58;98884.31;;;13.55;68.07
36664;BME280;53333;51.976;20.144;2022-09-16T01:22:48;98875.63;;;13.51;67.96
36664;BME280;53333;51.976;20.144;2022-09-16T01:25:38;98878.44;;;13.50;68.17
36664;BME280;53333;51.976;20.144;2022-09-16T01:28:49;98883.09;;;13.48;68.15
36664;BME280;53333;51.976;20.144;2022-09-16T01:31:35;98886.25;;;13.41;68.29
36664;BME280;53333;51.976;20.144;2022-09-16T01:34:16;98885.66;;;13.38;68.46
36664;BME280;53333;51.976;20.144;2022-09-16T01:37:00;98886.75;;;13.35;68.51
36664;BME280;53333;51.976;20.144;2022-09-16T01:39:42;98882.50;;;13.33;68.56
36664;BME280;53333;51.976;20.144;2022-09-16T01:42:21;98886.97;;;13.32;68.69
36664;BME280;53333;51.976;20.144;2022-09-16T01:45:04;98887.88;;;13.33;68.71
36664;BME280;53333;51.976;20.144;2022-09-16T01:47:46;98886.13;;;13.32;68.52
36664;BME280;53333;51.976;20.144;2022-09-16T01:50:25;98881.59;;;13.32;68.52
36664;BME280;53333;51.976;20.144;2022-09-16T01:53:08;98886.88;;;13.34;68.38
36664;BME280;53333;51.976;20.144;2022-09-16T01:55:48;98886.75;;;13.35;68.42
36664;BME280;53333;51.976;20.144;2022-09-16T01:58:26;98895.66;;;13.36;68.39
36664;BME280;53333;51.976;20.144;2022-09-16T02:01:04;98898.34;;;13.36;68.23
36664;BME280;53333;51.976;20.144;2022-09-16T02:03:45;98903.47;;;13.39;68.26
36664;BME280;53333;51.976;20.144;2022-09-16T02:06:22;98895.19;;;13.42;68.09
36664;BME280;53333;51.976;20.144;2022-09-16T02:09:00;98903.94;;;13.44;68.13
36664;BME280;53333;51.976;20.144;2022-09-16T02:11:35;98896.72;;;13.44;68.08
36664;BME280;53333;51.976;20.144;2022-09-16T02:14:14;98897.72;;;13.43;67.96
36664;BME280;53333;51.976;20.144;2022-09-16T02:16:53;98895.19;;;13.42;67.88
36664;BME280;53333;51.976;20.144;2022-09-16T02:19:33;98894.41;;;13.40;68.03
36664;BME280;53333;51.976;20.144;2022-09-16T02:22:12;98886.75;;;13.35;68.24
36664;BME280;53333;51.976;20.144;2022-09-16T02:24:47;98900.38;;;13.32;68.18
36664;BME280;53333;51.976;20.144;2022-09-16T02:27:22;98903.31;;;13.29;68.28
36664;BME280;53333;51.976;20.144;2022-09-16T02:29:59;98900.00;;;13.25;68.28
36664;BME280;53333;51.976;20.144;2022-09-16T02:32:37;98903.81;;;13.23;68.37
36664;BME280;53333;51.976;20.144;2022-09-16T02:35:16;98900.38;;;13.21;68.61
36664;BME280;53333;51.976;20.144;2022-09-16T02:37:54;98895.25;;;13.18;68.72
36664;BME280;53333;51.976;20.144;2022-09-16T02:40:33;98893.56;;;13.17;68.83
36664;BME280;53333;51.976;20.144;2022-09-16T02:43:08;98891.00;;;13.15;68.81
36664;BME280;53333;51.976;20.144;2022-09-16T02:45:45;98895.41;;;13.16;68.79
36664;BME280;53333;51.976;20.144;2022-09-16T02:48:28;98895.41;;;13.16;68.84
36664;BME280;53333;51.976;20.144;2022-09-16T02:51:15;98891.13;;;13.14;68.97
36664;BME280;53333;51.976;20.144;2022-09-16T02:53:57;98890.66;;;13.08;69.00
36664;BME280;53333;51.976;20.144;2022-09-16T02:56:34;98893.44;;;13.07;69.36
36664;BME280;53333;51.976;20.144;2022-09-16T02:59:11;98898.16;;;13.03;69.24
36664;BME280;53333;51.976;20.144;2022-09-16T03:01:45;98899.41;;;12.99;69.37
36664;BME280;53333;51.976;20.144;2022-09-16T03:04:19;98899.75;;;12.95;69.45
36664;BME280;53333;51.976;20.144;2022-09-16T03:06:56;98902.81;;;12.90;69.56
36664;BME280;53333;51.976;20.144;2022-09-16T03:09:30;98901.19;;;12.87;69.66
36664;BME280;53333;51.976;20.144;2022-09-16T03:12:14;98897.78;;;12.85;69.77
36664;BME280;53333;51.976;20.144;2022-09-16T03:15:12;98903.16;;;12.85;69.69
36664;BME280;53333;51.976;20.144;2022-09-16T03:18:19;98908.63;;;12.84;69.62
36664;BME280;53333;51.976;20.144;2022-09-16T03:20:59;98915.47;;;12.77;69.78
36664;BME280;53333;51.976;20.144;2022-09-16T03:23:43;98916.53;;;12.74;69.78
36664;BME280;53333;51.976;20.144;2022-09-16T03:26:29;98912.38;;;12.70;69.90
36664;BME280;53333;51.976;20.144;2022-09-16T03:29:10;98908.13;;;12.67;69.86
36664;BME280;53333;51.976;20.144;2022-09-16T03:31:52;98907.41;;;12.65;70.22
36664;BME280;53333;51.976;20.144;2022-09-16T03:34:32;98911.16;;;12.63;70.01
36664;BME280;53333;51.976;20.144;2022-09-16T03:37:14;98914.91;;;12.60;70.10
36664;BME280;53333;51.976;20.144;2022-09-16T03:39:52;98921.25;;;12.59;70.13
36664;BME280;53333;51.976;20.144;2022-09-16T03:42:27;98917.81;;;12.57;70.13
36664;BME280;53333;51.976;20.144;2022-09-16T03:45:01;98923.28;;;12.56;70.12
36664;BME280;53333;51.976;20.144;2022-09-16T03:47:34;98928.66;;;12.56;70.09
36664;BME280;53333;51.976;20.144;2022-09-16T03:50:08;98924.16;;;12.56;70.19
36664;BME280;53333;51.976;20.144;2022-09-16T03:52:42;98925.84;;;12.57;70.24
36664;BME280;53333;51.976;20.144;2022-09-16T03:55:17;98924.66;;;12.61;70.08
36664;BME280;53333;51.976;20.144;2022-09-16T03:57:52;98916.41;;;12.64;70.03
36664;BME280;53333;51.976;20.144;2022-09-16T04:00:25;98918.84;;;12.67;69.88
36664;BME280;53333;51.976;20.144;2022-09-16T04:03:00;98928.81;;;12.65;69.91
36664;BME280;53333;51.976;20.144;2022-09-16T04:05:33;98922.72;;;12.63;69.84
36664;BME280;53333;51.976;20.144;2022-09-16T04:08:06;98933.66;;;12.60;69.84
36664;BME280;53333;51.976;20.144;2022-09-16T04:10:41;98934.88;;;12.56;70.15
36664;BME280;53333;51.976;20.144;2022-09-16T04:13:15;98937.06;;;12.51;69.96
36664;BME280;53333;51.976;20.144;2022-09-16T04:15:48;98932.06;;;12.46;70.05
36664;BME280;53333;51.976;20.144;2022-09-16T04:18:22;98936.66;;;12.44;70.19
36664;BME280;53333;51.976;20.144;2022-09-16T04:20:55;98941.31;;;12.53;69.76
36664;BME280;53333;51.976;20.144;2022-09-16T04:23:29;98937.75;;;12.42;69.90
36664;BME280;53333;51.976;20.144;2022-09-16T04:26:04;98929.09;;;12.38;70.17
36664;BME280;53333;51.976;20.144;2022-09-16T04:28:38;98928.22;;;12.38;70.34
36664;BME280;53333;51.976;20.144;2022-09-16T04:31:13;98926.44;;;12.38;70.33
36664;BME280;53333;51.976;20.144;2022-09-16T04:33:47;98935.91;;;12.42;70.33
36664;BME280;53333;51.976;20.144;2022-09-16T04:36:21;98920.47;;;12.46;70.40
36664;BME280;53333;51.976;20.144;2022-09-16T04:38:55;98917.56;;;12.49;70.30
36664;BME280;53333;51.976;20.144;2022-09-16T04:41:30;98928.06;;;12.63;69.77
36664;BME280;53333;51.976;20.144;2022-09-16T04:44:04;98933.88;;;12.57;69.88
36664;BME280;53333;51.976;20.144;2022-09-16T04:46:38;98919.53;;;12.58;69.91
36664;BME280;53333;51.976;20.144;2022-09-16T04:49:11;98927.47;;;12.60;69.89
36664;BME280;53333;51.976;20.144;2022-09-16T04:51:45;98931.63;;;12.64;69.79
36664;BME280;53333;51.976;20.144;2022-09-16T04:54:18;98930.50;;;12.66;69.73
36664;BME280;53333;51.976;20.144;2022-09-16T04:56:53;98936.47;;;12.70;69.68
36664;BME280;53333;51.976;20.144;2022-09-16T04:59:29;98930.16;;;12.71;69.63
36664;BME280;53333;51.976;20.144;2022-09-16T05:02:02;98935.41;;;12.72;69.58
36664;BME280;53333;51.976;20.144;2022-09-16T05:04:36;98925.53;;;12.73;69.66
36664;BME280;53333;51.976;20.144;2022-09-16T05:07:09;98931.88;;;12.72;69.50
36664;BME280;53333;51.976;20.144;2022-09-16T05:09:43;98944.53;;;12.70;69.45
36664;BME280;53333;51.976;20.144;2022-09-16T05:12:18;98947.47;;;12.67;69.57
36664;BME280;53333;51.976;20.144;2022-09-16T05:14:51;98946.81;;;12.63;69.66
36664;BME280;53333;51.976;20.144;2022-09-16T05:17:25;98946.09;;;12.61;69.63
36664;BME280;53333;51.976;20.144;2022-09-16T05:20:21;98940.75;;;12.61;69.56
36664;BME280;53333;51.976;20.144;2022-09-16T05:22:54;98945.84;;;12.64;69.69
36664;BME280;53333;51.976;20.144;2022-09-16T05:25:28;98945.41;;;12.70;69.73
36664;BME280;53333;51.976;20.144;2022-09-16T05:28:03;98942.25;;;12.77;69.56
36664;BME280;53333;51.976;20.144;2022-09-16T05:30:36;98942.50;;;12.85;69.46
36664;BME280;53333;51.976;20.144;2022-09-16T05:33:09;98956.03;;;12.95;69.21
36664;BME280;53333;51.976;20.144;2022-09-16T05:35:43;98948.97;;;13.05;69.07
36664;BME280;53333;51.976;20.144;2022-09-16T05:38:16;98947.19;;;13.17;68.79
36664;BME280;53333;51.976;20.144;2022-09-16T05:40:50;98939.97;;;13.29;68.70
36664;BME280;53333;51.976;20.144;2022-09-16T05:43:25;98943.31;;;13.43;68.40
36664;BME280;53333;51.976;20.144;2022-09-16T05:45:59;98949.41;;;13.57;67.99
36664;BME280;53333;51.976;20.144;2022-09-16T05:48:33;98943.31;;;13.66;67.74
36664;BME280;53333;51.976;20.144;2022-09-16T05:51:07;98940.72;;;13.76;67.50
36664;BME280;53333;51.976;20.144;2022-09-16T05:53:42;98935.00;;;13.80;67.25
36664;BME280;53333;51.976;20.144;2022-09-16T05:56:17;98939.88;;;13.87;66.86
36664;BME280;53333;51.976;20.144;2022-09-16T05:58:53;98934.00;;;13.93;66.55
36664;BME280;53333;51.976;20.144;2022-09-16T06:01:29;98935.56;;;13.95;66.23
36664;BME280;53333;51.976;20.144;2022-09-16T06:04:08;98939.56;;;14.01;65.90
36664;BME280;53333;51.976;20.144;2022-09-16T06:06:45;98938.31;;;14.05;65.89
36664;BME280;53333;51.976;20.144;2022-09-16T06:09:21;98930.75;;;14.10;65.49
36664;BME280;53333;51.976;20.144;2022-09-16T06:11:55;98930.09;;;14.18;65.26
36664;BME280;53333;51.976;20.144;2022-09-16T06:14:35;98935.81;;;14.25;64.92
36664;BME280;53333;51.976;20.144;2022-09-16T06:17:08;98939.59;;;14.33;64.78
36664;BME280;53333;51.976;20.144;2022-09-16T06:19:42;98932.56;;;14.53;64.84
36664;BME280;53333;51.976;20.144;2022-09-16T06:22:15;98936.91;;;14.54;64.02
36664;BME280;53333;51.976;20.144;2022-09-16T06:24:50;98932.66;;;14.63;64.04
36664;BME280;53333;51.976;20.144;2022-09-16T06:27:23;98933.44;;;14.75;63.63
36664;BME280;53333;51.976;20.144;2022-09-16T06:29:58;98929.69;;;14.87;63.04
36664;BME280;53333;51.976;20.144;2022-09-16T06:32:32;98935.00;;;14.99;62.87
36664;BME280;53333;51.976;20.144;2022-09-16T06:35:05;98924.78;;;15.23;62.67
36664;BME280;53333;51.976;20.144;2022-09-16T06:37:39;98929.75;;;15.28;62.01
36664;BME280;53333;51.976;20.144;2022-09-16T06:40:13;98931.66;;;15.37;61.58
36664;BME280;53333;51.976;20.144;2022-09-16T06:42:47;98924.31;;;15.49;60.84
36664;BME280;53333;51.976;20.144;2022-09-16T06:45:21;98933.19;;;15.71;61.26
36664;BME280;53333;51.976;20.144;2022-09-16T06:47:58;98935.56;;;15.64;60.49
36664;BME280;53333;51.976;20.144;2022-09-16T06:50:32;98935.75;;;15.72;59.97
36664;BME280;53333;51.976;20.144;2022-09-16T06:53:05;98933.66;;;15.86;59.53
36664;BME280;53333;51.976;20.144;2022-09-16T06:55:39;98934.84;;;15.93;59.20
36664;BME280;53333;51.976;20.144;2022-09-16T06:58:12;98941.66;;;16.07;58.79
36664;BME280;53333;51.976;20.144;2022-09-16T07:00:47;98937.28;;;16.25;58.23
36664;BME280;53333;51.976;20.144;2022-09-16T07:03:22;98941.28;;;16.31;57.90
36664;BME280;53333;51.976;20.144;2022-09-16T07:05:56;98956.00;;;16.37;57.15
36664;BME280;53333;51.976;20.144;2022-09-16T07:08:32;98949.91;;;16.44;56.83
36664;BME280;53333;51.976;20.144;2022-09-16T07:11:07;98955.00;;;16.57;56.38
36664;BME280;53333;51.976;20.144;2022-09-16T07:13:42;98953.31;;;16.76;55.69
36664;BME280;53333;51.976;20.144;2022-09-16T07:16:19;98962.38;;;16.84;55.48
36664;BME280;53333;51.976;20.144;2022-09-16T07:18:53;98966.22;;;17.01;54.58
36664;BME280;53333;51.976;20.144;2022-09-16T07:21:32;98958.09;;;17.11;54.28
36664;BME280;53333;51.976;20.144;2022-09-16T07:24:05;98969.56;;;17.23;53.64
36664;BME280;53333;51.976;20.144;2022-09-16T07:26:39;98970.22;;;17.45;54.37
36664;BME280;53333;51.976;20.144;2022-09-16T07:29:14;98977.88;;;17.49;52.89
36664;BME280;53333;51.976;20.144;2022-09-16T07:31:49;98964.88;;;17.63;52.20
36664;BME280;53333;51.976;20.144;2022-09-16T07:36:59;98968.34;;;18.10;51.39
36664;BME280;53333;51.976;20.144;2022-09-16T07:39:33;98964.78;;;18.56;51.98
36664;BME280;53333;51.976;20.144;2022-09-16T07:42:06;98968.69;;;18.79;50.14
36664;BME280;53333;51.976;20.144;2022-09-16T07:44:39;98952.13;;;19.18;50.92
36664;BME280;53333;51.976;20.144;2022-09-16T07:47:14;98958.03;;;19.22;48.94
36664;BME280;53333;51.976;20.144;2022-09-16T07:49:53;98955.88;;;19.26;47.68
36664;BME280;53333;51.976;20.144;2022-09-16T07:52:27;98974.59;;;19.19;47.48
36664;BME280;53333;51.976;20.144;2022-09-16T07:55:01;98969.97;;;19.11;47.21
36664;BME280;53333;51.976;20.144;2022-09-16T07:57:35;98965.28;;;19.13;46.65
36664;BME280;53333;51.976;20.144;2022-09-16T08:00:10;98967.13;;;19.39;46.05
36664;BME280;53333;51.976;20.144;2022-09-16T08:02:45;98970.25;;;19.78;45.41
36664;BME280;53333;51.976;20.144;2022-09-16T08:05:18;98963.44;;;20.25;45.02
36664;BME280;53333;51.976;20.144;2022-09-16T08:07:52;98969.72;;;21.41;44.37
36664;BME280;53333;51.976;20.144;2022-09-16T08:10:25;98965.25;;;22.12;41.73
36664;BME280;53333;51.976;20.144;2022-09-16T08:13:03;98961.50;;;23.14;39.31
36664;BME280;53333;51.976;20.144;2022-09-16T08:15:37;98964.38;;;23.36;38.45
36664;BME280;53333;51.976;20.144;2022-09-16T08:18:12;98955.25;;;23.44;37.39
36664;BME280;53333;51.976;20.144;2022-09-16T08:20:45;98963.44;;;23.88;36.86
36664;BME280;53333;51.976;20.144;2022-09-16T08:23:19;98959.47;;;24.42;36.20
36664;BME280;53333;51.976;20.144;2022-09-16T08:25:55;98949.22;;;25.66;34.10
36664;BME280;53333;51.976;20.144;2022-09-16T08:28:30;98956.78;;;26.05;33.20
36664;BME280;53333;51.976;20.144;2022-09-16T08:31:23;98957.16;;;25.04;34.56
36664;BME280;53333;51.976;20.144;2022-09-16T08:33:59;98961.78;;;23.87;35.42
36664;BME280;53333;51.976;20.144;2022-09-16T08:36:32;98958.16;;;23.72;35.08
36664;BME280;53333;51.976;20.144;2022-09-16T08:39:06;98959.75;;;23.36;35.85
36664;BME280;53333;51.976;20.144;2022-09-16T08:45:13;98955.53;;;25.38;33.33
36664;BME280;53333;51.976;20.144;2022-09-16T08:48:04;98962.91;;;26.14;32.38
36664;BME280;53333;51.976;20.144;2022-09-16T08:50:45;98960.38;;;26.81;31.10
36664;BME280;53333;51.976;20.144;2022-09-16T08:53:31;98960.22;;;25.86;32.46
36664;BME280;53333;51.976;20.144;2022-09-16T08:56:10;98966.41;;;24.81;33.17
36664;BME280;53333;51.976;20.144;2022-09-16T08:58:47;98963.22;;;24.56;33.59
36664;BME280;53333;51.976;20.144;2022-09-16T09:01:28;98963.13;;;24.50;33.97
36664;BME280;53333;51.976;20.144;2022-09-16T09:04:04;98969.84;;;24.32;34.50
36664;BME280;53333;51.976;20.144;2022-09-16T09:06:53;98957.97;;;23.44;35.53
36664;BME280;53333;51.976;20.144;2022-09-16T09:09:45;98966.78;;;22.46;37.14
36664;BME280;53333;51.976;20.144;2022-09-16T09:12:33;98973.28;;;21.66;38.37
36664;BME280;53333;51.976;20.144;2022-09-16T09:15:26;98955.16;;;23.37;35.40
36664;BME280;53333;51.976;20.144;2022-09-16T09:18:16;98957.44;;;24.29;34.52
36664;BME280;53333;51.976;20.144;2022-09-16T09:20:59;98960.22;;;25.44;33.23
36664;BME280;53333;51.976;20.144;2022-09-16T09:24:00;98959.31;;;26.07;32.16
36664;BME280;53333;51.976;20.144;2022-09-16T09:26:43;98962.28;;;27.54;29.51
36664;BME280;53333;51.976;20.144;2022-09-16T09:29:36;98953.06;;;28.84;27.88
36664;BME280;53333;51.976;20.144;2022-09-16T09:32:22;98949.59;;;28.25;27.62
36664;BME280;53333;51.976;20.144;2022-09-16T09:35:14;98962.06;;;27.15;29.01
36664;BME280;53333;51.976;20.144;2022-09-16T09:41:07;98963.47;;;24.61;32.06
36664;BME280;53333;51.976;20.144;2022-09-16T09:43:49;98962.13;;;23.39;33.17
36664;BME280;53333;51.976;20.144;2022-09-16T09:46:29;98967.38;;;22.34;34.98
36664;BME280;53333;51.976;20.144;2022-09-16T09:49:09;98976.53;;;21.45;37.07
36664;BME280;53333;51.976;20.144;2022-09-16T09:51:48;98986.06;;;20.67;39.40
36664;BME280;53333;51.976;20.144;2022-09-16T09:54:26;98988.25;;;20.55;40.68
36664;BME280;53333;51.976;20.144;2022-09-16T09:57:05;98978.63;;;20.85;41.06
36664;BME280;53333;51.976;20.144;2022-09-16T09:59:44;98974.69;;;20.55;40.76
36664;BME280;53333;51.976;20.144;2022-09-16T10:02:21;98971.31;;;20.02;42.63
36664;BME280;53333;51.976;20.144;2022-09-16T10:04:55;98972.97;;;19.60;43.83
36664;BME280;53333;51.976;20.144;2022-09-16T10:07:28;98972.56;;;20.24;43.63
36664;BME280;53333;51.976;20.144;2022-09-16T10:10:13;98971.13;;;21.93;41.54
36664;BME280;53333;51.976;20.144;2022-09-16T10:12:49;98966.78;;;22.46;40.50
36664;BME280;53333;51.976;20.144;2022-09-16T10:15:26;98968.38;;;23.02;39.16
36664;BME280;53333;51.976;20.144;2022-09-16T10:18:00;98967.94;;;24.11;37.33
36664;BME280;53333;51.976;20.144;2022-09-16T10:20:37;98965.88;;;23.68;37.63
36664;BME280;53333;51.976;20.144;2022-09-16T10:23:13;98958.78;;;23.14;38.50
36664;BME280;53333;51.976;20.144;2022-09-16T10:25:47;98967.09;;;22.52;38.90
36664;BME280;53333;51.976;20.144;2022-09-16T10:28:25;98962.16;;;21.84;40.55
36664;BME280;53333;51.976;20.144;2022-09-16T10:31:02;98964.84;;;21.20;40.52
36664;BME280;53333;51.976;20.144;2022-09-16T10:33:41;98963.69;;;20.57;41.68
36664;BME280;53333;51.976;20.144;2022-09-16T10:36:18;98961.78;;;20.41;41.97
36664;BME280;53333;51.976;20.144;2022-09-16T10:38:55;98969.09;;;21.22;40.49
36664;BME280;53333;51.976;20.144;2022-09-16T10:41:41;98968.59;;;21.02;40.72
36664;BME280;53333;51.976;20.144;2022-09-16T10:44:21;98967.09;;;20.75;41.58
36664;BME280;53333;51.976;20.144;2022-09-16T10:46:58;98969.38;;;20.37;41.92
36664;BME280;53333;51.976;20.144;2022-09-16T10:49:38;98968.28;;;20.05;42.66
36664;BME280;53333;51.976;20.144;2022-09-16T10:52:15;98973.13;;;19.77;43.70
36664;BME280;53333;51.976;20.144;2022-09-16T10:54:49;98965.72;;;19.95;43.04
36664;BME280;53333;51.976;20.144;2022-09-16T10:57:25;98963.06;;;21.68;40.62
36664;BME280;53333;51.976;20.144;2022-09-16T11:00:08;98959.50;;;23.91;37.24
36664;BME280;53333;51.976;20.144;2022-09-16T11:03:16;98962.41;;;26.59;33.71
36664;BME280;53333;51.976;20.144;2022-09-16T11:06:07;98955.22;;;27.85;31.54
36664;BME280;53333;51.976;20.144;2022-09-16T11:08:57;98951.84;;;27.76;31.05
36664;BME280;53333;51.976;20.144;2022-09-16T11:14:43;98963.66;;;26.50;30.91
36664;BME280;53333;51.976;20.144;2022-09-16T11:17:32;98952.13;;;25.29;32.32
36664;BME280;53333;51.976;20.144;2022-09-16T11:20:30;98952.88;;;24.15;33.49
36664;BME280;53333;51.976;20.144;2022-09-16T11:23:10;98960.19;;;23.10;34.41
36664;BME280;53333;51.976;20.144;2022-09-16T11:25:50;98957.72;;;22.54;34.95
36664;BME280;53333;51.976;20.144;2022-09-16T11:28:45;98944.38;;;24.25;33.08
36664;BME280;53333;51.976;20.144;2022-09-16T11:31:30;98943.00;;;25.22;31.45
36664;BME280;53333;51.976;20.144;2022-09-16T11:34:21;98941.81;;;26.63;29.80
36664;BME280;53333;51.976;20.144;2022-09-16T11:37:05;98934.69;;;28.07;27.52
36664;BME280;53333;51.976;20.144;2022-09-16T11:40:03;98941.63;;;27.11;28.23
36664;BME280;53333;51.976;20.144;2022-09-16T11:42:41;98937.16;;;25.95;28.24
36664;BME280;53333;51.976;20.144;2022-09-16T11:45:25;98944.50;;;25.25;29.32
36664;BME280;53333;51.976;20.144;2022-09-16T11:48:27;98942.59;;;25.47;29.38
36664;BME280;53333;51.976;20.144;2022-09-16T11:51:10;98938.97;;;25.46;29.71
36664;BME280;53333;51.976;20.144;2022-09-16T11:54:17;98942.16;;;25.22;30.20
36664;BME280;53333;51.976;20.144;2022-09-16T11:57:01;98939.50;;;24.78;29.26
36664;BME280;53333;51.976;20.144;2022-09-16T11:59:38;98937.78;;;24.56;29.55
36664;BME280;53333;51.976;20.144;2022-09-16T12:02:16;98945.75;;;24.14;30.09
36664;BME280;53333;51.976;20.144;2022-09-16T12:04:56;98950.75;;;23.96;30.29
36664;BME280;53333;51.976;20.144;2022-09-16T12:07:37;98943.59;;;23.20;31.36
36664;BME280;53333;51.976;20.144;2022-09-16T12:10:16;98951.56;;;22.83;31.57
36664;BME280;53333;51.976;20.144;2022-09-16T12:12:56;98937.00;;;24.04;30.82
36664;BME280;53333;51.976;20.144;2022-09-16T12:15:36;98939.34;;;23.77;30.97
36664;BME280;53333;51.976;20.144;2022-09-16T12:18:16;98934.84;;;23.25;31.65
36664;BME280;53333;51.976;20.144;2022-09-16T12:20:56;98932.59;;;22.90;32.02
36664;BME280;53333;51.976;20.144;2022-09-16T12:23:34;98933.50;;;22.67;32.31
36664;BME280;53333;51.976;20.144;2022-09-16T12:26:14;98924.91;;;23.62;31.23
36664;BME280;53333;51.976;20.144;2022-09-16T12:28:55;98916.97;;;24.33;31.06
36664;BME280;53333;51.976;20.144;2022-09-16T12:31:32;98919.47;;;24.50;30.62
36664;BME280;53333;51.976;20.144;2022-09-16T12:34:10;98918.41;;;24.51;30.15
36664;BME280;53333;51.976;20.144;2022-09-16T12:36:47;98904.50;;;24.45;30.85
36664;BME280;53333;51.976;20.144;2022-09-16T12:39:23;98907.97;;;24.33;30.84
36664;BME280;53333;51.976;20.144;2022-09-16T12:42:22;98910.22;;;24.29;31.26
36664;BME280;53333;51.976;20.144;2022-09-16T12:45:07;98902.31;;;24.13;31.66
36664;BME280;53333;51.976;20.144;2022-09-16T12:48:00;98910.06;;;23.79;31.44
36664;BME280;53333;51.976;20.144;2022-09-16T12:50:46;98902.72;;;23.50;32.06
36664;BME280;53333;51.976;20.144;2022-09-16T12:53:52;98902.78;;;22.97;32.67
36664;BME280;53333;51.976;20.144;2022-09-16T12:56:51;98914.06;;;22.47;32.35
36664;BME280;53333;51.976;20.144;2022-09-16T13:02:44;98920.63;;;21.67;34.00
36664;BME280;53333;51.976;20.144;2022-09-16T13:05:24;98909.81;;;21.42;34.27
36664;BME280;53333;51.976;20.144;2022-09-16T13:08:14;98914.28;;;21.35;34.94
36664;BME280;53333;51.976;20.144;2022-09-16T13:10:59;98907.66;;;21.30;34.73
36664;BME280;53333;51.976;20.144;2022-09-16T13:13:57;98910.06;;;21.16;34.99
36664;BME280;53333;51.976;20.144;2022-09-16T13:16:33;98913.66;;;21.00;35.57
36664;BME280;53333;51.976;20.144;2022-09-16T13:19:27;98905.03;;;20.89;36.26
36664;BME280;53333;51.976;20.144;2022-09-16T13:22:16;98906.06;;;20.79;36.30
36664;BME280;53333;51.976;20.144;2022-09-16T13:24:57;98897.41;;;20.67;37.14
36664;BME280;53333;51.976;20.144;2022-09-16T13:27:39;98896.03;;;20.55;37.30
36664;BME280;53333;51.976;20.144;2022-09-16T13:30:26;98890.59;;;20.47;37.19
36664;BME280;53333;51.976;20.144;2022-09-16T13:33:02;98894.13;;;20.31;37.99
36664;BME280;53333;51.976;20.144;2022-09-16T13:36:30;98899.06;;;20.19;38.42
36664;BME280;53333;51.976;20.144;2022-09-16T13:39:05;98900.19;;;20.00;38.51
36664;BME280;53333;51.976;20.144;2022-09-16T13:41:49;98886.81;;;19.90;38.92
36664;BME280;53333;51.976;20.144;2022-09-16T13:44:39;98906.25;;;19.86;38.82
36664;BME280;53333;51.976;20.144;2022-09-16T13:47:29;98909.47;;;19.81;39.33
36664;BME280;53333;51.976;20.144;2022-09-16T13:50:12;98894.16;;;19.72;39.14
36664;BME280;53333;51.976;20.144;2022-09-16T13:52:47;98902.25;;;19.64;39.51
36664;BME280;53333;51.976;20.144;2022-09-16T13:55:23;98896.94;;;19.46;39.44
36664;BME280;53333;51.976;20.144;2022-09-16T13:58:02;98893.09;;;19.22;39.97
36664;BME280;53333;51.976;20.144;2022-09-16T14:00:44;98891.47;;;19.03;40.06
36664;BME280;53333;51.976;20.144;2022-09-16T14:06:40;98898.78;;;18.66;40.93
36664;BME280;53333;51.976;20.144;2022-09-16T14:09:28;98906.91;;;18.48;41.25
36664;BME280;53333;51.976;20.144;2022-09-16T14:12:09;98903.94;;;18.33;41.63